sensor_id;sensor_type;location;lat;lon;timestamp;P1;durP1;ratioP1;P2;durP2;ratioP2
48522;SDS011;34315;50.150;11.070;2022-09-29T00:02:17;4.57;;;2.28;;
48522;SDS011;34315;50.150;11.070;2022-09-29T00:07:18;4.20;;;2.67;;
48522;SDS011;34315;50.150;11.070;2022-09-29T00:12:18;6.63;;;2.53;;
48522;SDS011;34315;50.150;11.070;2022-09-29T00:17:19;4.40;;;2.20;;
48522;SDS011;34315;50.150;11.070;2022-09-29T00:22:19;4.53;;;2.40;;
48522;SDS011;34315;50.150;11.070;2022-09-29T00:27:19;4.60;;;2.60;;
48522;SDS011;34315;50.150;11.070;2022-09-29T00:32:20;4.90;;;3.08;;
48522;SDS011;34315;50.150;11.070;2022-09-29T00:37:21;10.20;;;3.13;;
48522;SDS011;34315;50.150;11.070;2022-09-29T00:42:21;6.50;;;2.72;;
48522;SDS011;34315;50.150;11.070;2022-09-29T00:47:23;7.45;;;3.00;;
48522;SDS011;34315;50.150;11.070;2022-09-29T00:52:29;7.25;;;3.03;;
48522;SDS011;34315;50.150;11.070;2022-09-29T00:57:45;6.50;;;3.10;;
48522;SDS011;34315;50.150;11.070;2022-09-29T01:02:58;5.45;;;2.80;;
48522;SDS011;34315;50.150;11.070;2022-09-29T01:08:02;7.25;;;3.00;;
48522;SDS011;34315;50.150;11.070;2022-09-29T01:13:08;7.18;;;3.08;;
48522;SDS011;34315;50.150;11.070;2022-09-29T01:18:09;6.10;;;2.95;;
48522;SDS011;34315;50.150;11.070;2022-09-29T01:23:17;7.63;;;3.40;;
48522;SDS011;34315;50.150;11.070;2022-09-29T01:34:41;6.57;;;2.95;;
48522;SDS011;34315;50.150;11.070;2022-09-29T01:45:01;4.53;;;2.50;;
48522;SDS011;34315;50.150;11.070;2022-09-29T01:55:41;3.95;;;2.47;;
48522;SDS011;34315;50.150;11.070;2022-09-29T02:00:46;4.03;;;2.58;;
48522;SDS011;34315;50.150;11.070;2022-09-29T02:05:50;4.13;;;2.55;;
48522;SDS011;34315;50.150;11.070;2022-09-29T02:10:55;5.07;;;2.70;;
48522;SDS011;34315;50.150;11.070;2022-09-29T02:16:12;5.25;;;2.80;;
48522;SDS011;34315;50.150;11.070;2022-09-29T02:21:14;4.75;;;2.83;;
48522;SDS011;34315;50.150;11.070;2022-09-29T02:26:15;6.28;;;3.40;;
48522;SDS011;34315;50.150;11.070;2022-09-29T02:31:16;6.00;;;3.10;;
48522;SDS011;34315;50.150;11.070;2022-09-29T02:36:18;8.57;;;4.10;;
48522;SDS011;34315;50.150;11.070;2022-09-29T02:41:28;8.00;;;3.35;;
48522;SDS011;34315;50.150;11.070;2022-09-29T02:46:58;10.97;;;3.43;;
48522;SDS011;34315;50.150;11.070;2022-09-29T02:52:14;4.85;;;2.97;;
48522;SDS011;34315;50.150;11.070;2022-09-29T02:57:24;5.47;;;3.15;;
48522;SDS011;34315;50.150;11.070;2022-09-29T03:02:27;5.43;;;3.05;;
48522;SDS011;34315;50.150;11.070;2022-09-29T03:07:28;4.85;;;2.97;;
48522;SDS011;34315;50.150;11.070;2022-09-29T03:12:28;8.35;;;2.83;;
48522;SDS011;34315;50.150;11.070;2022-09-29T03:17:29;8.35;;;3.15;;
48522;SDS011;34315;50.150;11.070;2022-09-29T03:22:30;5.13;;;2.97;;
48522;SDS011;34315;50.150;11.070;2022-09-29T03:27:31;8.35;;;3.00;;
48522;SDS011;34315;50.150;11.070;2022-09-29T03:32:32;4.93;;;2.83;;
48522;SDS011;34315;50.150;11.070;2022-09-29T03:37:32;9.40;;;3.03;;
48522;SDS011;34315;50.150;11.070;2022-09-29T03:42:33;10.32;;;3.30;;
48522;SDS011;34315;50.150;11.070;2022-09-29T03:47:33;4.90;;;3.10;;
48522;SDS011;34315;50.150;11.070;2022-09-29T03:52:34;6.22;;;2.92;;
48522;SDS011;34315;50.150;11.070;2022-09-29T03:57:34;5.88;;;3.00;;
48522;SDS011;34315;50.150;11.070;2022-09-29T04:02:35;5.68;;;3.10;;
48522;SDS011;34315;50.150;11.070;2022-09-29T04:07:35;6.45;;;2.83;;
48522;SDS011;34315;50.150;11.070;2022-09-29T04:12:36;4.68;;;2.65;;
48522;SDS011;34315;50.150;11.070;2022-09-29T04:17:36;5.30;;;3.05;;
48522;SDS011;34315;50.150;11.070;2022-09-29T04:22:37;5.15;;;2.90;;
48522;SDS011;34315;50.150;11.070;2022-09-29T04:27:37;8.07;;;2.97;;
48522;SDS011;34315;50.150;11.070;2022-09-29T04:32:38;5.88;;;2.65;;
48522;SDS011;34315;50.150;11.070;2022-09-29T04:37:38;4.40;;;2.78;;
48522;SDS011;34315;50.150;11.070;2022-09-29T04:42:38;8.18;;;4.47;;
48522;SDS011;34315;50.150;11.070;2022-09-29T04:47:39;7.53;;;3.97;;
48522;SDS011;34315;50.150;11.070;2022-09-29T04:52:42;7.53;;;3.42;;
48522;SDS011;34315;50.150;11.070;2022-09-29T04:57:43;7.65;;;3.50;;
48522;SDS011;34315;50.150;11.070;2022-09-29T05:02:44;4.95;;;3.17;;
48522;SDS011;34315;50.150;11.070;2022-09-29T05:07:44;6.88;;;4.28;;
48522;SDS011;34315;50.150;11.070;2022-09-29T05:12:48;5.45;;;3.35;;
48522;SDS011;34315;50.150;11.070;2022-09-29T05:17:49;6.82;;;3.88;;
48522;SDS011;34315;50.150;11.070;2022-09-29T05:22:50;6.50;;;3.50;;
48522;SDS011;34315;50.150;11.070;2022-09-29T05:27:50;6.10;;;3.10;;
48522;SDS011;34315;50.150;11.070;2022-09-29T05:32:50;5.90;;;3.13;;
48522;SDS011;34315;50.150;11.070;2022-09-29T05:37:51;7.10;;;3.13;;
48522;SDS011;34315;50.150;11.070;2022-09-29T05:42:52;7.07;;;4.22;;
48522;SDS011;34315;50.150;11.070;2022-09-29T05:47:52;7.35;;;3.35;;
48522;SDS011;34315;50.150;11.070;2022-09-29T05:52:53;13.65;;;7.57;;
48522;SDS011;34315;50.150;11.070;2022-09-29T05:57:54;11.27;;;5.72;;
48522;SDS011;34315;50.150;11.070;2022-09-29T06:02:56;22.25;;;11.82;;
48522;SDS011;34315;50.150;11.070;2022-09-29T06:07:57;10.05;;;6.07;;
48522;SDS011;34315;50.150;11.070;2022-09-29T06:12:58;7.40;;;4.10;;
48522;SDS011;34315;50.150;11.070;2022-09-29T06:17:58;7.68;;;4.35;;
48522;SDS011;34315;50.150;11.070;2022-09-29T06:23:00;6.75;;;4.22;;
48522;SDS011;34315;50.150;11.070;2022-09-29T06:28:00;7.65;;;3.67;;
48522;SDS011;34315;50.150;11.070;2022-09-29T06:33:00;6.97;;;3.70;;
48522;SDS011;34315;50.150;11.070;2022-09-29T06:38:01;7.85;;;4.00;;
48522;SDS011;34315;50.150;11.070;2022-09-29T06:43:01;7.18;;;3.90;;
48522;SDS011;34315;50.150;11.070;2022-09-29T06:48:02;7.18;;;3.35;;
48522;SDS011;34315;50.150;11.070;2022-09-29T06:53:03;5.88;;;3.42;;
48522;SDS011;34315;50.150;11.070;2022-09-29T06:58:03;5.10;;;3.53;;
48522;SDS011;34315;50.150;11.070;2022-09-29T07:03:04;10.60;;;4.10;;
48522;SDS011;34315;50.150;11.070;2022-09-29T07:08:04;7.65;;;3.90;;
48522;SDS011;34315;50.150;11.070;2022-09-29T07:13:04;7.65;;;4.40;;
48522;SDS011;34315;50.150;11.070;2022-09-29T07:18:05;7.38;;;4.57;;
48522;SDS011;34315;50.150;11.070;2022-09-29T07:23:06;8.98;;;4.50;;
48522;SDS011;34315;50.150;11.070;2022-09-29T07:28:08;7.00;;;4.28;;
48522;SDS011;34315;50.150;11.070;2022-09-29T07:33:08;5.88;;;4.40;;
48522;SDS011;34315;50.150;11.070;2022-09-29T07:38:08;6.72;;;4.25;;
48522;SDS011;34315;50.150;11.070;2022-09-29T07:43:09;7.25;;;4.10;;
48522;SDS011;34315;50.150;11.070;2022-09-29T07:48:09;8.05;;;4.05;;
48522;SDS011;34315;50.150;11.070;2022-09-29T07:53:10;6.90;;;4.43;;
48522;SDS011;34315;50.150;11.070;2022-09-29T07:58:11;6.85;;;3.85;;
48522;SDS011;34315;50.150;11.070;2022-09-29T08:03:11;6.57;;;4.45;;
48522;SDS011;34315;50.150;11.070;2022-09-29T08:08:12;7.28;;;4.10;;
48522;SDS011;34315;50.150;11.070;2022-09-29T08:13:13;8.85;;;4.60;;
48522;SDS011;34315;50.150;11.070;2022-09-29T08:18:13;6.18;;;3.95;;
48522;SDS011;34315;50.150;11.070;2022-09-29T08:23:13;6.80;;;3.72;;
48522;SDS011;34315;50.150;11.070;2022-09-29T08:28:14;7.78;;;4.25;;
48522;SDS011;34315;50.150;11.070;2022-09-29T08:33:14;6.45;;;3.95;;
48522;SDS011;34315;50.150;11.070;2022-09-29T08:38:15;7.30;;;4.47;;
48522;SDS011;34315;50.150;11.070;2022-09-29T08:43:36;7.38;;;3.70;;
48522;SDS011;34315;50.150;11.070;2022-09-29T08:48:39;8.43;;;4.53;;
48522;SDS011;34315;50.150;11.070;2022-09-29T08:53:43;8.50;;;4.47;;
48522;SDS011;34315;50.150;11.070;2022-09-29T08:58:44;8.25;;;4.63;;
48522;SDS011;34315;50.150;11.070;2022-09-29T09:03:49;7.97;;;4.60;;
48522;SDS011;34315;50.150;11.070;2022-09-29T09:19:45;12.20;;;4.88;;
48522;SDS011;34315;50.150;11.070;2022-09-29T09:30:30;10.10;;;4.80;;
48522;SDS011;34315;50.150;11.070;2022-09-29T09:35:35;7.57;;;4.57;;
48522;SDS011;34315;50.150;11.070;2022-09-29T09:40:49;11.65;;;4.75;;
48522;SDS011;34315;50.150;11.070;2022-09-29T09:45:59;10.65;;;4.43;;
48522;SDS011;34315;50.150;11.070;2022-09-29T09:51:17;8.68;;;4.38;;
48522;SDS011;34315;50.150;11.070;2022-09-29T10:01:35;4.97;;;3.65;;
48522;SDS011;34315;50.150;11.070;2022-09-29T10:06:35;9.15;;;4.30;;
48522;SDS011;34315;50.150;11.070;2022-09-29T10:11:35;5.53;;;4.25;;
48522;SDS011;34315;50.150;11.070;2022-09-29T10:16:37;7.95;;;3.78;;
48522;SDS011;34315;50.150;11.070;2022-09-29T10:21:42;9.90;;;3.80;;
48522;SDS011;34315;50.150;11.070;2022-09-29T10:26:43;8.52;;;3.78;;
48522;SDS011;34315;50.150;11.070;2022-09-29T10:31:56;6.60;;;3.58;;
48522;SDS011;34315;50.150;11.070;2022-09-29T10:37:00;8.63;;;3.60;;
48522;SDS011;34315;50.150;11.070;2022-09-29T10:42:02;7.32;;;3.70;;
48522;SDS011;34315;50.150;11.070;2022-09-29T10:47:06;6.20;;;3.38;;
48522;SDS011;34315;50.150;11.070;2022-09-29T10:52:21;8.93;;;3.42;;
48522;SDS011;34315;50.150;11.070;2022-09-29T10:57:26;6.18;;;3.50;;
48522;SDS011;34315;50.150;11.070;2022-09-29T11:02:29;7.85;;;3.22;;
48522;SDS011;34315;50.150;11.070;2022-09-29T11:07:32;5.32;;;3.22;;
48522;SDS011;34315;50.150;11.070;2022-09-29T11:12:34;6.35;;;3.20;;
48522;SDS011;34315;50.150;11.070;2022-09-29T11:17:38;5.90;;;3.42;;
48522;SDS011;34315;50.150;11.070;2022-09-29T11:22:45;6.80;;;3.03;;
48522;SDS011;34315;50.150;11.070;2022-09-29T11:33:47;6.38;;;2.58;;
48522;SDS011;34315;50.150;11.070;2022-09-29T11:43:58;5.97;;;2.45;;
48522;SDS011;34315;50.150;11.070;2022-09-29T11:49:10;6.03;;;2.42;;
48522;SDS011;34315;50.150;11.070;2022-09-29T12:05:25;5.65;;;2.67;;
48522;SDS011;34315;50.150;11.070;2022-09-29T12:15:59;6.10;;;2.45;;
48522;SDS011;34315;50.150;11.070;2022-09-29T12:26:46;4.63;;;2.38;;
48522;SDS011;34315;50.150;11.070;2022-09-29T12:31:48;4.43;;;2.20;;
48522;SDS011;34315;50.150;11.070;2022-09-29T12:41:55;6.03;;;2.00;;
48522;SDS011;34315;50.150;11.070;2022-09-29T12:47:16;7.10;;;2.28;;
48522;SDS011;34315;50.150;11.070;2022-09-29T12:52:25;8.18;;;2.13;;
48522;SDS011;34315;50.150;11.070;2022-09-29T12:57:40;4.75;;;2.38;;
48522;SDS011;34315;50.150;11.070;2022-09-29T13:07:53;4.88;;;2.28;;
48522;SDS011;34315;50.150;11.070;2022-09-29T13:13:18;4.93;;;1.90;;
48522;SDS011;34315;50.150;11.070;2022-09-29T13:23:52;10.88;;;2.55;;
48522;SDS011;34315;50.150;11.070;2022-09-29T13:29:18;8.20;;;2.33;;
48522;SDS011;34315;50.150;11.070;2022-09-29T13:39:33;5.32;;;2.47;;
48522;SDS011;34315;50.150;11.070;2022-09-29T13:44:34;7.22;;;4.00;;
48522;SDS011;34315;50.150;11.070;2022-09-29T13:49:34;6.30;;;3.25;;
48522;SDS011;34315;50.150;11.070;2022-09-29T13:59:39;5.10;;;2.17;;
48522;SDS011;34315;50.150;11.070;2022-09-29T14:09:48;6.00;;;2.20;;
48522;SDS011;34315;50.150;11.070;2022-09-29T14:14:50;5.03;;;2.67;;
48522;SDS011;34315;50.150;11.070;2022-09-29T14:19:59;4.63;;;2.27;;
48522;SDS011;34315;50.150;11.070;2022-09-29T14:30:19;5.07;;;2.20;;
48522;SDS011;34315;50.150;11.070;2022-09-29T14:35:30;5.50;;;2.28;;
48522;SDS011;34315;50.150;11.070;2022-09-29T14:40:32;5.35;;;2.20;;
48522;SDS011;34315;50.150;11.070;2022-09-29T14:45:37;5.32;;;2.22;;
48522;SDS011;34315;50.150;11.070;2022-09-29T14:51:09;7.63;;;2.03;;
48522;SDS011;34315;50.150;11.070;2022-09-29T14:56:51;6.10;;;2.60;;
48522;SDS011;34315;50.150;11.070;2022-09-29T15:02:08;5.15;;;2.30;;
48522;SDS011;34315;50.150;11.070;2022-09-29T15:07:23;4.25;;;2.35;;
48522;SDS011;34315;50.150;11.070;2022-09-29T15:12:27;6.70;;;3.92;;
48522;SDS011;34315;50.150;11.070;2022-09-29T15:22:59;4.03;;;1.90;;
48522;SDS011;34315;50.150;11.070;2022-09-29T15:28:20;3.92;;;1.75;;
48522;SDS011;34315;50.150;11.070;2022-09-29T15:33:30;5.53;;;2.53;;
48522;SDS011;34315;50.150;11.070;2022-09-29T15:38:38;4.00;;;1.40;;
48522;SDS011;34315;50.150;11.070;2022-09-29T15:43:40;4.68;;;1.40;;
48522;SDS011;34315;50.150;11.070;2022-09-29T15:54:10;3.53;;;1.92;;
48522;SDS011;34315;50.150;11.070;2022-09-29T15:59:18;3.45;;;1.65;;
48522;SDS011;34315;50.150;11.070;2022-09-29T16:04:19;5.65;;;1.75;;
48522;SDS011;34315;50.150;11.070;2022-09-29T16:09:19;3.58;;;1.63;;
48522;SDS011;34315;50.150;11.070;2022-09-29T16:14:24;5.57;;;1.60;;
48522;SDS011;34315;50.150;11.070;2022-09-29T16:19:27;3.22;;;1.42;;
48522;SDS011;34315;50.150;11.070;2022-09-29T16:24:30;3.85;;;1.92;;
48522;SDS011;34315;50.150;11.070;2022-09-29T16:29:34;4.18;;;1.60;;
48522;SDS011;34315;50.150;11.070;2022-09-29T16:34:35;3.75;;;1.58;;
48522;SDS011;34315;50.150;11.070;2022-09-29T16:39:39;2.70;;;1.50;;
48522;SDS011;34315;50.150;11.070;2022-09-29T16:44:41;5.80;;;1.73;;
48522;SDS011;34315;50.150;11.070;2022-09-29T16:49:49;3.53;;;1.88;;
48522;SDS011;34315;50.150;11.070;2022-09-29T16:54:52;3.45;;;1.85;;
48522;SDS011;34315;50.150;11.070;2022-09-29T16:59:55;3.30;;;1.73;;
48522;SDS011;34315;50.150;11.070;2022-09-29T17:04:57;4.15;;;1.67;;
48522;SDS011;34315;50.150;11.070;2022-09-29T17:10:00;3.25;;;1.65;;
48522;SDS011;34315;50.150;11.070;2022-09-29T17:15:00;4.32;;;1.80;;
48522;SDS011;34315;50.150;11.070;2022-09-29T17:20:05;4.32;;;1.85;;
48522;SDS011;34315;50.150;11.070;2022-09-29T17:25:06;5.13;;;2.40;;
48522;SDS011;34315;50.150;11.070;2022-09-29T17:30:07;20.08;;;12.32;;
48522;SDS011;34315;50.150;11.070;2022-09-29T17:35:08;6.13;;;3.03;;
48522;SDS011;34315;50.150;11.070;2022-09-29T17:45:19;8.40;;;2.28;;
48522;SDS011;34315;50.150;11.070;2022-09-29T17:50:25;4.40;;;2.13;;
48522;SDS011;34315;50.150;11.070;2022-09-29T17:55:29;3.45;;;1.80;;
48522;SDS011;34315;50.150;11.070;2022-09-29T18:00:34;6.10;;;2.58;;
48522;SDS011;34315;50.150;11.070;2022-09-29T18:05:38;5.13;;;2.53;;
48522;SDS011;34315;50.150;11.070;2022-09-29T18:10:45;5.00;;;2.70;;
48522;SDS011;34315;50.150;11.070;2022-09-29T18:15:48;4.32;;;2.67;;
48522;SDS011;34315;50.150;11.070;2022-09-29T18:20:49;7.32;;;3.90;;
48522;SDS011;34315;50.150;11.070;2022-09-29T18:25:50;6.40;;;3.25;;
48522;SDS011;34315;50.150;11.070;2022-09-29T18:31:05;7.30;;;3.85;;
48522;SDS011;34315;50.150;11.070;2022-09-29T18:36:11;8.18;;;4.75;;
48522;SDS011;34315;50.150;11.070;2022-09-29T18:41:13;9.27;;;4.90;;
48522;SDS011;34315;50.150;11.070;2022-09-29T18:46:15;7.25;;;3.88;;
48522;SDS011;34315;50.150;11.070;2022-09-29T18:51:16;9.00;;;4.60;;
48522;SDS011;34315;50.150;11.070;2022-09-29T18:56:18;7.93;;;4.35;;
48522;SDS011;34315;50.150;11.070;2022-09-29T19:01:19;10.13;;;4.90;;
48522;SDS011;34315;50.150;11.070;2022-09-29T19:06:23;6.82;;;4.15;;
48522;SDS011;34315;50.150;11.070;2022-09-29T19:11:24;9.02;;;3.70;;
48522;SDS011;34315;50.150;11.070;2022-09-29T19:16:25;7.28;;;4.18;;
48522;SDS011;34315;50.150;11.070;2022-09-29T19:21:27;5.25;;;3.10;;
48522;SDS011;34315;50.150;11.070;2022-09-29T19:26:27;6.55;;;3.53;;
48522;SDS011;34315;50.150;11.070;2022-09-29T19:31:28;5.53;;;3.20;;
48522;SDS011;34315;50.150;11.070;2022-09-29T19:36:29;7.10;;;3.30;;
48522;SDS011;34315;50.150;11.070;2022-09-29T19:41:29;7.28;;;3.47;;
48522;SDS011;34315;50.150;11.070;2022-09-29T19:46:30;11.60;;;5.25;;
48522;SDS011;34315;50.150;11.070;2022-09-29T19:51:30;8.55;;;5.15;;
48522;SDS011;34315;50.150;11.070;2022-09-29T19:56:50;16.60;;;7.47;;
48522;SDS011;34315;50.150;11.070;2022-09-29T20:01:53;17.17;;;8.95;;
48522;SDS011;34315;50.150;11.070;2022-09-29T20:06:54;28.60;;;11.13;;
48522;SDS011;34315;50.150;11.070;2022-09-29T20:11:56;10.32;;;5.47;;
48522;SDS011;34315;50.150;11.070;2022-09-29T20:16:57;8.00;;;4.30;;
48522;SDS011;34315;50.150;11.070;2022-09-29T20:21:57;7.28;;;5.07;;
48522;SDS011;34315;50.150;11.070;2022-09-29T20:26:58;8.95;;;5.90;;
48522;SDS011;34315;50.150;11.070;2022-09-29T20:31:59;9.32;;;5.07;;
48522;SDS011;34315;50.150;11.070;2022-09-29T20:36:59;7.60;;;4.50;;
48522;SDS011;34315;50.150;11.070;2022-09-29T20:42:00;11.70;;;7.20;;
48522;SDS011;34315;50.150;11.070;2022-09-29T20:47:02;9.45;;;6.35;;
48522;SDS011;34315;50.150;11.070;2022-09-29T20:52:03;9.80;;;5.22;;
48522;SDS011;34315;50.150;11.070;2022-09-29T20:57:03;11.40;;;5.30;;
48522;SDS011;34315;50.150;11.070;2022-09-29T21:02:03;8.38;;;5.30;;
48522;SDS011;34315;50.150;11.070;2022-09-29T21:07:05;9.98;;;5.97;;
48522;SDS011;34315;50.150;11.070;2022-09-29T21:12:27;9.20;;;5.10;;
48522;SDS011;34315;50.150;11.070;2022-09-29T21:17:27;8.48;;;4.72;;
48522;SDS011;34315;50.150;11.070;2022-09-29T21:22:28;10.48;;;5.43;;
48522;SDS011;34315;50.150;11.070;2022-09-29T21:27:28;7.78;;;4.55;;
48522;SDS011;34315;50.150;11.070;2022-09-29T21:32:29;7.70;;;4.28;;
48522;SDS011;34315;50.150;11.070;2022-09-29T21:37:29;6.85;;;4.38;;
48522;SDS011;34315;50.150;11.070;2022-09-29T21:42:31;8.00;;;4.80;;
48522;SDS011;34315;50.150;11.070;2022-09-29T21:47:31;6.68;;;4.57;;
48522;SDS011;34315;50.150;11.070;2022-09-29T21:52:51;8.57;;;4.57;;
48522;SDS011;34315;50.150;11.070;2022-09-29T21:57:51;7.72;;;4.35;;
48522;SDS011;34315;50.150;11.070;2022-09-29T22:02:54;7.85;;;4.95;;
48522;SDS011;34315;50.150;11.070;2022-09-29T22:07:54;6.28;;;4.45;;
48522;SDS011;34315;50.150;11.070;2022-09-29T22:12:55;9.07;;;4.90;;
48522;SDS011;34315;50.150;11.070;2022-09-29T22:17:55;7.72;;;4.50;;
48522;SDS011;34315;50.150;11.070;2022-09-29T22:22:56;8.65;;;4.55;;
48522;SDS011;34315;50.150;11.070;2022-09-29T22:27:56;11.30;;;4.75;;
48522;SDS011;34315;50.150;11.070;2022-09-29T22:32:57;7.07;;;4.70;;
48522;SDS011;34315;50.150;11.070;2022-09-29T22:37:57;7.07;;;4.00;;
48522;SDS011;34315;50.150;11.070;2022-09-29T22:42:58;7.43;;;4.15;;
48522;SDS011;34315;50.150;11.070;2022-09-29T22:47:59;7.95;;;4.18;;
48522;SDS011;34315;50.150;11.070;2022-09-29T22:53:00;6.55;;;3.85;;
48522;SDS011;34315;50.150;11.070;2022-09-29T22:58:00;5.68;;;3.92;;
48522;SDS011;34315;50.150;11.070;2022-09-29T23:03:01;7.32;;;4.10;;
48522;SDS011;34315;50.150;11.070;2022-09-29T23:08:02;7.88;;;4.40;;
48522;SDS011;34315;50.150;11.070;2022-09-29T23:13:03;6.93;;;3.70;;
48522;SDS011;34315;50.150;11.070;2022-09-29T23:18:05;8.30;;;5.03;;
48522;SDS011;34315;50.150;11.070;2022-09-29T23:23:05;7.45;;;4.55;;
48522;SDS011;34315;50.150;11.070;2022-09-29T23:28:05;7.63;;;4.90;;
48522;SDS011;34315;50.150;11.070;2022-09-29T23:33:06;8.00;;;4.50;;
48522;SDS011;34315;50.150;11.070;2022-09-29T23:38:07;7.13;;;4.22;;
48522;SDS011;34315;50.150;11.070;2022-09-29T23:43:27;7.60;;;4.10;;
48522;SDS011;34315;50.150;11.070;2022-09-29T23:48:27;8.23;;;4.07;;
48522;SDS011;34315;50.150;11.070;2022-09-29T23:53:29;11.02;;;4.32;;
48522;SDS011;34315;50.150;11.070;2022-09-29T23:58:29;9.10;;;4.03;;
